Current Conditions

Updated: 24-May-2016 8:13 PM  
Summary / Temperature Wind Rain






Feels like: 77°F

1-hour difference
3.2°F 3.2°F colder than last hour.

24-hour difference
0.6°F0.6°F colder than yesterday at this time.

  Today Yesterday
High: 82.1°F
3:47 PM
81.4°F
3:59 PM
Low: 57.6°F
6:13 AM
50.2°F
5:35 AM
Wind from WSW WSW
0.9
Gust:  0.0 mph
0 Beaufort - Calm

Today: 8.1 - 12:58 PM
Month: 13.0 mph - May 19
Rain Today: 0.00 in
Current Rate (/hr): 0.000 in
Max Rate (/hr):
Rain Yesterday: 0.00 in
Storm Rain: 0.00 in
This Month: 0.03 in
Season Total: 9.68 in
Last Rain Event: 17 days ago
Humidity / Barometer Sun / Moon
Humidity: 42 Increased 5.0% in the last hour.
Dew Point: 47.0°F Increased 0.4°F in the last hour.
Barometer: 29.884 inHg  
Baro Trend: Steady
Sunrise: 5:43 AM
Sunset: 8:02 PM
Moonrise: 10:33 PM
Moonset: 9:01 AM
Sky Conditions UV Index
Summary: Mostly cloudy
Visibility: 10 miles
Clouds: Mostly cloudy @ 8,000 ft
KPTV - 7:56 PM PDT
Current: 0.0  None 
Wednesday: 7.1  High 
Thursday: 7.8  High 
Air Quality Fire Danger
 Good 
Ozone 46 ppb
PM 2.5 3 μg/m3
8:10 PM PDT
Current: 31  Low 

Local Alerts Local Forecast
Local NWS Alerts
Tonight

Isolated
T'Storms
Low 52
Wed

Partly
Cloudy
High 77
Wed night

Partly
Cloudy
Low 52
Thu

Mostly
Sunny
High 82
Thu night

Mostly
Clear
Low 55
Fri

Mostly
Sunny
High 90
Fri night

Mostly
Clear
Low 55

Local Radar Local Satellite Neighborhood Cam Sky Cam
Local Radar Local Satellite Neighborhood Cam Sky Cam


Nearby Personal Stations

Weather Underground PWS KCAPORTE11 Weather Underground PWS KCAPORTE5 Weather Underground PWS KCAPORTE8

Nearby Airport Stations

KPTV - Porterville, California, USA
Distance from station: SSW 4mi, 7km
Updated: Tue, 24-May-2016 7:56pm PDT
Mostly cloudy
Mostly cloudy
 Wind from W
Wind: W 14 mph , 22 km/h
Temperature: 72°F , 22°C
Dew Point: 45°F , 7°C
Humidity: 38%
Barometer: 29.93 inHg , 1013.5 hPa
Clouds: Mostly cloudy
Visibility: 10 miles , 16 km
Cloud details: Mostly cloudy 8000 ft
2016/05/25 02:56 KPTV 250256Z AUTO 28012KT 10SM BKN080 22/07 A2993 RMK AO2 SLP144 T02170072 53006
KVIS - Visalia, California, USA
Distance from station: NW 27mi, 43km
Updated: Tue, 24-May-2016 7:56pm PDT
Partly cloudy
Partly cloudy
 Wind from WSW
Wind: WSW 14 mph , 22 km/h
Temperature: 70°F , 21°C
Dew Point: 46°F , 8°C
Humidity: 43%
Barometer: 29.93 inHg , 1013.5 hPa
Clouds: Partly cloudy
Visibility: 10 miles , 16 km
Cloud details: Partly cloudy 8000 ft
2016/05/25 02:56 KVIS 250256Z AUTO 25012KT 10SM SCT080 21/08 A2993 RMK AO2 SLP140 T02110083 53007

Metar display script from Saratoga-Weather.org



Visitor Map